Main page
METAR-TAF:

METAR-TAF

Airports :

Vienna, Austria

Vienna International Airport

latitude: 48-07N, longitude: 016-34E, elevation: 183 m

Current weather observation

The report was made 39 minutes ago, at 08:20 UTC
Wind 4 kt from the Southeast, varying between East and South
Temperature 11°C
Humidity 66%
Pressure 1019 hPa
Visibility 10 km or more
no clouds below 1500 m and no cumulonimbus

METAR: LOWW 300820Z 14004KT 100V180 CAVOK 11/05 Q1019 NOSIG

Time: 10:59 (08:59 UTC)

Forecast

The report was made 3 hours and 44 minutes ago, at 05:15 UTC
Forecast valid from 30 at 06 UTC to 01 at 12 UTC
Wind 2 kt from variable directions
Visibility 10 km or more
no clouds below 1500 m and no cumulonimbus
Becoming
from 30 at 09 UTC to 30 at 11 UTC
Wind 10 kt from the Southeast
Temporary
from 01 at 09 UTC to 01 at 12 UTC
Wind 15 kt from the Southeast with gusts up to 25 kt

TAF: LOWW 300515Z 3006/0112 VRB02KT CAVOK TX16/3015Z TN05/3006Z BECMG 3009/3011 13010KT TEMPO 0109/0112 14015G25KT

Weather observations and forecasts of more than 4000 airports (METAR and TAF reports).

The available stations are represented by yellow and red dots on the map.

Hover mouse over dot to see the name of the station.

Then click to see weather observations and forecasts.

To change the map : click on the green buttons with a black cross to zoom in, on the green button with a dash to zoom out, or on the green arrows for adjacent maps.


METAR-TAF: